Time;durP1;ratioP1;P1;durP2;ratioP2;P2;SDS_P1;SDS_P2;PMS_P1;PMS_P2;Temp;Humidity;BMP_temperature;BMP_pressure;BME280_temperature;BME280_humidity;BME280_pressure;Samples;Min_cycle;Max_cycle;Signal;HPM_P1;HPM_P2
2022/10/29 00:00:28;;;;;;;4.00;3.13;;;;;;;10.49;100.00;100812.72;4860154;29;20029;-75
2022/10/29 00:02:54;;;;;;;3.47;3.17;;;;;;;10.50;100.00;100822.38;4859870;29;20056;-75
2022/10/29 00:05:19;;;;;;;3.50;3.20;;;;;;;10.48;100.00;100813.72;4859670;29;20033;-74
2022/10/29 00:07:45;;;;;;;4.43;3.33;;;;;;;10.50;100.00;100811.72;4859099;29;20029;-75
2022/10/29 00:10:36;;;;;;;3.77;2.73;;;;;;;10.47;100.00;100798.72;4860153;29;20122;-75
2022/10/29 00:13:02;;;;;;;4.77;2.57;;;;;;;10.48;100.00;100800.41;4861140;29;20482;-76
2022/10/29 00:15:28;;;;;;;3.83;2.87;;;;;;;10.51;100.00;100810.72;4863772;29;20062;-74
2022/10/29 00:17:53;;;;;;;3.90;3.03;;;;;;;10.51;100.00;100808.06;4846832;29;20037;-76
2022/10/29 00:20:20;;;;;;;3.70;3.13;;;;;;;10.54;100.00;100802.41;4863796;29;20094;-75
2022/10/29 00:22:46;;;;;;;4.07;3.43;;;;;;;10.49;100.00;100802.06;4863660;29;20033;-75
2022/10/29 00:25:12;;;;;;;3.47;3.13;;;;;;;10.44;100.00;100793.72;4863380;29;20025;-74
2022/10/29 00:27:37;;;;;;;3.70;2.80;;;;;;;10.49;100.00;100802.91;4863372;29;20044;-75
2022/10/29 00:30:03;;;;;;;3.53;3.23;;;;;;;10.50;100.00;100793.06;4863203;29;20059;-76
2022/10/29 00:32:29;;;;;;;5.17;4.00;;;;;;;10.49;100.00;100783.41;4863300;29;20029;-75
2022/10/29 00:34:54;;;;;;;4.57;3.80;;;;;;;10.49;100.00;100768.28;4863606;29;20477;-75
2022/10/29 00:37:20;;;;;;;4.67;4.00;;;;;;;10.31;100.00;100748.06;4847226;29;20038;-76
2022/10/29 00:39:46;;;;;;;4.13;3.50;;;;;;;10.52;100.00;100764.44;4864982;29;20036;-77
2022/10/29 00:42:16;;;;;;;5.30;3.33;;;;;;;10.49;100.00;100762.94;4867106;29;20040;-76
2022/10/29 00:44:42;;;;;;;3.90;3.50;;;;;;;10.44;100.00;100753.78;4871244;29;20033;-74
2022/10/29 00:47:17;;;;;;;5.03;3.87;;;;;;;10.40;100.00;100741.75;4870303;29;20066;-75
2022/10/29 00:49:46;;;;;;;4.87;3.90;;;;;;;10.21;100.00;100710.94;4875340;29;20078;-77
2022/10/29 00:52:13;;;;;;;5.17;3.77;;;;;;;10.34;100.00;100724.63;4862844;29;20033;-75
2022/10/29 00:54:42;;;;;;;3.57;3.10;;;;;;;10.38;100.00;100735.78;4862663;29;20064;-75
2022/10/29 00:57:10;;;;;;;;;;;;;;;10.45;100.00;100724.34;4863281;29;20100;-75
2022/10/29 00:59:35;;;;;;;3.10;2.80;;;;;;;10.41;100.00;100727.50;4862948;29;19920;-74
2022/10/29 01:02:01;;;;;;;4.43;2.93;;;;;;;10.39;100.00;100713.47;4862993;29;20041;-75
2022/10/29 01:04:27;;;;;;;3.80;3.50;;;;;;;10.44;100.00;100722.66;4862837;29;20036;-75
2022/10/29 01:06:54;;;;;;;3.50;3.20;;;;;;;10.45;100.00;100716.34;4862663;29;20030;-73
2022/10/29 01:09:19;;;;;;;3.83;3.20;;;;;;;10.39;100.00;100697.50;4862562;29;20053;-73
2022/10/29 01:12:16;;;;;;;3.17;2.80;;;;;;;10.38;100.00;100702.00;4861984;29;20045;-74
2022/10/29 01:15:04;;;;;;;3.07;2.57;;;;;;;10.41;100.00;100700.88;4862805;29;20033;-75
2022/10/29 01:17:45;;;;;;;4.77;3.50;;;;;;;10.41;100.00;100700.88;4862458;29;20045;-75
2022/10/29 01:20:35;;;;;;;5.00;3.38;;;;;;;10.41;100.00;100701.69;4862568;29;20364;-74
2022/10/29 01:23:42;;;;;;;4.97;3.10;;;;;;;10.37;100.00;100692.34;4862366;29;20049;-73
2022/10/29 01:26:07;;;;;;;3.53;3.03;;;;;;;10.35;100.00;100688.19;4860927;29;20042;-73
2022/10/29 01:28:57;;;;;;;4.00;2.87;;;;;;;10.34;100.00;100678.53;4861793;29;20044;-73
2022/10/29 01:31:29;;;;;;;2.50;2.10;;;;;;;10.34;100.00;100679.38;4862061;29;20067;-72
2022/10/29 01:34:13;;;;;;;2.17;1.90;;;;;;;10.35;100.00;100683.69;4861888;29;20029;-74
2022/10/29 01:36:47;;;;;;;3.70;2.60;;;;;;;10.38;100.00;100685.19;4861841;29;20083;-75
2022/10/29 01:39:54;;;;;;;2.30;2.10;;;;;;;10.44;100.00;100684.56;4862024;29;20076;-75
2022/10/29 01:42:26;;;;;;;2.37;2.17;;;;;;;10.42;100.00;100678.56;4851828;29;20046;-75
2022/10/29 01:45:13;;;;;;;3.30;2.17;;;;;;;10.35;100.00;100670.38;4861605;29;20269;-76
2022/10/29 01:47:45;;;;;;;3.00;2.70;;;;;;;10.37;100.00;100673.72;4862217;29;20037;-75
2022/10/29 01:50:18;;;;;;;3.10;2.17;;;;;;;10.31;100.00;100665.56;4862047;29;20061;-75
2022/10/29 01:52:46;;;;;;;2.77;2.13;;;;;;;10.32;100.00;100664.56;4861681;29;20033;-74
2022/10/29 01:55:16;;;;;;;2.37;1.87;;;;;;;10.36;100.00;100663.22;4861681;29;20026;-74
2022/10/29 01:57:41;;;;;;;2.30;2.10;;;;;;;10.35;100.00;100662.41;4861240;29;20290;-73
2022/10/29 02:00:10;;;;;;;2.83;2.63;;;;;;;10.37;100.00;100662.22;4862000;29;20085;-76
2022/10/29 02:03:00;;;;;;;2.87;2.13;;;;;;;10.42;100.00;100657.28;4861778;29;20059;-74
2022/10/29 02:05:33;;;;;;;3.53;2.57;;;;;;;10.41;100.00;100652.94;4861659;29;20037;-75
2022/10/29 02:08:10;;;;;;;2.70;2.50;;;;;;;10.39;100.00;100661.06;4861559;29;20068;-75
2022/10/29 02:10:40;;;;;;;3.13;2.67;;;;;;;10.39;100.00;100653.09;4861810;29;20585;-76
2022/10/29 02:13:08;;;;;;;2.43;2.23;;;;;;;10.39;100.00;100650.41;4862118;29;20034;-76
2022/10/29 02:15:36;;;;;;;;;;;;;;;10.42;100.00;100650.13;4861831;29;20535;-76
2022/10/29 02:18:05;;;;;;;3.33;2.63;;;;;;;10.37;100.00;100639.09;4861665;29;19912;-75
2022/10/29 02:20:30;;;;;;;;;;;;;;;10.43;100.00;100641.13;4861635;29;20037;-75
2022/10/29 02:22:56;;;;;;;2.80;2.50;;;;;;;10.40;100.00;100632.63;4861317;29;19918;-75
2022/10/29 02:25:22;;;;;;;3.10;2.80;;;;;;;10.38;100.00;100630.13;4861515;29;20599;-75
2022/10/29 02:27:48;;;;;;;2.93;2.40;;;;;;;10.41;100.00;100637.81;4861368;29;20030;-75
2022/10/29 02:30:14;;;;;;;4.53;2.97;;;;;;;10.45;100.00;100632.97;4861359;29;20025;-76
2022/10/29 02:32:40;;;;;;;4.90;2.70;;;;;;;10.41;100.00;100615.69;4861340;29;20036;-74
2022/10/29 02:35:06;;;;;;;2.60;2.40;;;;;;;10.49;100.00;100626.31;4861201;29;20041;-75
2022/10/29 02:37:31;;;;;;;3.10;2.80;;;;;;;10.49;100.00;100618.34;4860041;29;20026;-74
2022/10/29 02:39:57;;;;;;;3.20;2.70;;;;;;;10.48;100.00;100611.34;4860975;29;20040;-76
2022/10/29 02:42:22;;;;;;;3.57;2.80;;;;;;;10.51;100.00;100611.84;4861113;29;20035;-74
2022/10/29 02:44:48;;;;;;;4.13;3.73;;;;;;;10.49;100.00;100611.19;4861091;29;20470;-75
2022/10/29 02:47:13;;;;;;;4.23;3.20;;;;;;;10.51;100.00;100608.34;4860927;29;20359;-77
2022/10/29 02:49:39;;;;;;;3.83;3.30;;;;;;;10.48;100.00;100600.69;4860633;29;20486;-76
2022/10/29 02:52:04;;;;;;;3.97;3.20;;;;;;;10.48;100.00;100600.69;4860928;29;20025;-73
2022/10/29 02:54:30;;;;;;;3.43;3.13;;;;;;;10.48;100.00;100603.34;4860653;29;20086;-74
2022/10/29 02:56:56;;;;;;;3.97;3.37;;;;;;;10.53;100.00;100603.69;4860449;29;20033;-75
2022/10/29 02:59:22;;;;;;;4.33;3.40;;;;;;;10.54;100.00;100605.34;4860994;29;20047;-74
2022/10/29 03:01:47;;;;;;;4.40;3.50;;;;;;;10.52;100.00;100602.03;4860428;29;20036;-75
2022/10/29 03:04:13;;;;;;;4.63;3.90;;;;;;;10.49;100.00;100599.69;4860600;29;20120;-76
2022/10/29 03:06:38;;;;;;;4.07;3.20;;;;;;;10.49;100.00;100587.22;4860517;29;20152;-77
2022/10/29 03:09:04;;;;;;;4.20;3.43;;;;;;;10.55;100.00;100599.03;4860397;29;20049;-76
2022/10/29 03:11:31;;;;;;;4.67;3.70;;;;;;;10.54;100.00;100594.69;4860532;29;20066;-74
2022/10/29 03:13:57;;;;;;;5.77;4.77;;;;;;;10.54;100.00;100589.38;4860457;29;20037;-76
2022/10/29 03:16:22;;;;;;;4.13;3.60;;;;;;;10.56;100.00;100582.06;4860492;29;20112;-75
2022/10/29 03:18:48;;;;;;;6.30;4.07;;;;;;;10.54;100.00;100584.88;4843498;29;20124;-75
2022/10/29 03:21:13;;;;;;;5.40;4.17;;;;;;;10.54;100.00;100573.41;4860663;29;20397;-76
2022/10/29 03:23:38;;;;;;;5.33;4.07;;;;;;;10.55;100.00;100575.91;4860463;29;20046;-75
2022/10/29 03:26:04;;;;;;;8.83;4.30;;;;;;;10.57;100.00;100567.75;4860441;29;20067;-75
2022/10/29 03:28:30;;;;;;;5.70;4.50;;;;;;;10.54;100.00;100552.94;4860617;29;20391;-75
2022/10/29 03:30:56;;;;;;;5.97;4.73;;;;;;;10.59;100.00;100557.75;4860309;29;20039;-75
2022/10/29 03:33:25;;;;;;;7.13;5.30;;;;;;;10.58;100.00;100563.25;4860633;29;20469;-74
2022/10/29 03:36:09;;;;;;;6.45;5.43;;;;;;;10.61;100.00;100557.56;4860414;29;20410;-75
2022/10/29 03:38:34;;;;;;;6.33;5.07;;;;;;;10.59;100.00;100560.41;4860515;29;20120;-75
2022/10/29 03:41:00;;;;;;;5.37;4.20;;;;;;;10.61;100.00;100561.06;4860008;29;20120;-75
2022/10/29 03:43:26;;;;;;;7.53;5.10;;;;;;;10.61;100.00;100550.41;4860569;29;20120;-76
2022/10/29 03:45:53;;;;;;;7.43;4.97;;;;;;;10.61;100.00;100560.25;4860271;29;20351;-75
2022/10/29 03:48:19;;;;;;;7.13;5.57;;;;;;;10.63;100.00;100552.91;4859949;29;20047;-74
2022/10/29 03:50:53;;;;;;;7.47;4.43;;;;;;;10.41;100.00;100509.19;4860257;29;20495;-75
2022/10/29 04:04:38;;;;;;;6.87;5.47;;;;;;;10.52;100.00;100504.34;4858079;29;20043;-77
2022/10/29 04:07:04;;;;;;;7.10;5.50;;;;;;;10.45;100.00;100494.53;4860429;29;20032;-77
2022/10/29 04:09:30;;;;;;;11.00;7.33;;;;;;;10.58;100.00;100510.81;4860059;29;20053;-77
2022/10/29 04:12:04;;;;;;;7.37;5.87;;;;;;;10.63;100.00;100508.47;4860275;29;20125;-77
2022/10/29 04:14:30;;;;;;;8.77;6.17;;;;;;;10.64;100.00;100512.78;4860191;29;20065;-78
2022/10/29 04:16:57;;;;;;;8.10;6.77;;;;;;;10.58;100.00;100494.84;4861312;29;20076;-76
2022/10/29 04:19:22;;;;;;;9.10;6.77;;;;;;;10.56;100.00;100486.19;4862880;29;20033;-77
2022/10/29 04:21:47;;;;;;;9.00;6.63;;;;;;;10.61;100.00;100488.34;4870056;29;20029;-76
2022/10/29 04:24:13;;;;;;;9.67;7.70;;;;;;;10.65;100.00;100493.16;4870488;29;20033;-76
2022/10/29 04:26:41;;;;;;;11.30;7.37;;;;;;;10.67;100.00;100491.16;4879057;29;20033;-75
2022/10/29 04:29:07;;;;;;;10.82;8.02;;;;;;;10.71;100.00;100492.50;4878935;29;20385;-76
2022/10/29 04:31:32;;;;;;;11.70;7.00;;;;;;;10.75;100.00;100490.31;4878191;29;20033;-77
2022/10/29 04:33:58;;;;;;;11.03;7.60;;;;;;;10.72;100.00;100480.84;4878060;29;20107;-74
2022/10/29 04:36:23;;;;;;;11.50;8.47;;;;;;;10.72;100.00;100480.84;4878121;29;20025;-74
2022/10/29 04:38:49;;;;;;;10.33;7.80;;;;;;;10.70;100.00;100485.50;4878083;29;20136;-75
2022/10/29 04:41:15;;;;;;;12.83;8.37;;;;;;;10.73;100.00;100482.50;4878002;29;20037;-77
2022/10/29 04:43:40;;;;;;;13.07;8.40;;;;;;;10.79;100.00;100488.97;4877944;29;20376;-74
2022/10/29 04:46:06;;;;;;;11.83;7.33;;;;;;;10.80;100.00;100477.31;4877851;29;20061;-75
2022/10/29 04:48:31;;;;;;;10.80;8.53;;;;;;;10.80;100.00;100472.81;4877713;29;20490;-74
2022/10/29 04:50:57;;;;;;;10.70;7.83;;;;;;;10.76;100.00;100471.50;4877944;29;20461;-75
2022/10/29 04:53:22;;;;;;;14.97;7.43;;;;;;;10.76;100.00;100466.19;4878216;29;20025;-76
2022/10/29 04:55:48;;;;;;;13.20;8.50;;;;;;;10.77;100.00;100467.84;4877969;29;20149;-75
2022/10/29 04:58:18;;;;;;;12.50;10.17;;;;;;;10.75;100.00;100458.34;4877827;29;20041;-75
2022/10/29 05:00:44;;;;;;;13.07;9.20;;;;;;;10.74;100.00;100454.88;4879610;29;20462;-76
2022/10/29 05:03:10;;;;;;;12.40;8.20;;;;;;;10.71;100.00;100441.91;4880888;29;20081;-76
2022/10/29 05:05:37;;;;;;;12.23;8.20;;;;;;;10.75;100.00;100440.53;4881389;29;20033;-75
2022/10/29 05:08:04;;;;;;;10.53;7.10;;;;;;;10.76;100.00;100439.53;4881169;29;20101;-74
2022/10/29 05:10:34;;;;;;;15.43;7.93;;;;;;;10.78;100.00;100431.38;4881172;29;20139;-74
2022/10/29 05:13:08;;;;;;;11.90;7.87;;;;;;;10.83;100.00;100437.84;4880841;29;20099;-75
2022/10/29 05:15:36;;;;;;;14.90;8.27;;;;;;;10.74;100.00;100436.22;4879537;29;20323;-74
2022/10/29 05:18:03;;;;;;;11.40;7.30;;;;;;;10.73;100.00;100421.25;4881009;29;20092;-74
2022/10/29 05:20:29;;;;;;;15.03;8.83;;;;;;;10.82;100.00;100430.84;4880913;29;20037;-73
2022/10/29 05:23:05;;;;;;;14.53;8.50;;;;;;;10.80;100.00;100424.03;4880625;29;20039;-75
2022/10/29 05:25:33;;;;;;;19.07;9.77;;;;;;;10.81;100.00;100428.38;4880383;29;20036;-73
2022/10/29 05:28:04;;;;;;;16.42;8.85;;;;;;;10.82;100.00;100420.19;4880518;29;20062;-75
2022/10/29 05:30:30;;;;;;;12.27;7.90;;;;;;;10.82;100.00;100417.53;4880336;29;20036;-75
2022/10/29 05:32:56;;;;;;;14.47;8.23;;;;;;;10.84;100.00;100415.53;4880811;29;20031;-75
2022/10/29 05:35:22;;;;;;;15.07;8.27;;;;;;;10.75;100.00;100387.28;4880672;29;20033;-75
2022/10/29 05:37:51;;;;;;;16.90;8.77;;;;;;;10.82;100.00;100404.22;4879745;29;20040;-74
2022/10/29 05:40:17;;;;;;;12.87;8.50;;;;;;;10.85;100.00;100409.19;4879307;29;20035;-75
2022/10/29 05:42:43;;;;;;;16.67;8.47;;;;;;;10.85;100.00;100398.53;4878525;29;20389;-72
2022/10/29 05:45:09;;;;;;;18.53;9.70;;;;;;;10.84;100.00;100394.22;4878660;29;20449;-74
2022/10/29 05:47:34;;;;;;;18.73;9.63;;;;;;;10.82;100.00;100406.06;4862452;29;20106;-74
2022/10/29 05:49:59;;;;;;;15.17;9.53;;;;;;;10.84;100.00;100396.88;4886207;29;20130;-77
2022/10/29 05:52:25;;;;;;;18.90;9.57;;;;;;;10.86;100.00;100392.22;4869684;29;20039;-76
2022/10/29 05:54:50;;;;;;;14.77;8.77;;;;;;;10.87;100.00;100390.38;4884402;29;20105;-75
2022/10/29 05:57:16;;;;;;;15.43;9.37;;;;;;;10.92;100.00;100395.19;4884304;29;20029;-75
2022/10/29 05:59:41;;;;;;;16.63;9.40;;;;;;;10.93;100.00;100387.00;4881519;29;20040;-76
2022/10/29 06:02:09;;;;;;;18.07;10.33;;;;;;;10.92;100.00;100385.34;4879921;29;20065;-76
2022/10/29 06:04:34;;;;;;;17.30;10.13;;;;;;;10.93;100.00;100386.19;4879967;29;20025;-76
2022/10/29 06:07:00;;;;;;;17.37;10.50;;;;;;;10.93;100.00;100387.00;4880239;29;20040;-75
2022/10/29 06:09:27;;;;;;;14.63;9.23;;;;;;;10.77;100.00;100350.63;4880242;29;20517;-75
2022/10/29 06:11:53;;;;;;;21.20;10.40;;;;;;;10.93;100.00;100375.53;4864370;29;20076;-76
2022/10/29 06:14:19;;;;;;;14.90;9.57;;;;;;;10.97;100.00;100390.97;4860553;29;20120;-75
2022/10/29 06:16:44;;;;;;;16.17;10.63;;;;;;;10.98;100.00;100379.31;4861825;29;20383;-75
2022/10/29 06:19:10;;;;;;;17.40;10.10;;;;;;;10.96;100.00;100364.50;4861010;29;20029;-76
2022/10/29 06:21:35;;;;;;;15.23;9.37;;;;;;;11.01;100.00;100373.66;4860759;29;20044;-77
2022/10/29 06:24:01;;;;;;;18.50;10.03;;;;;;;11.02;100.00;100369.16;4866079;29;20021;-75
2022/10/29 06:26:27;;;;;;;23.43;9.53;;;;;;;11.06;100.00;100371.31;4880103;29;20033;-75
2022/10/29 06:28:52;;;;;;;15.27;11.30;;;;;;;11.00;100.00;100361.34;4879656;29;20055;-76
2022/10/29 06:31:18;;;;;;;17.17;9.63;;;;;;;10.98;100.00;100354.50;4863138;29;20028;-79
2022/10/29 06:33:43;;;;;;;20.30;10.93;;;;;;;10.93;100.00;100354.22;4879151;29;20033;-74
2022/10/29 06:36:09;;;;;;;15.93;9.63;;;;;;;10.97;100.00;100356.34;4880155;29;20029;-78
2022/10/29 06:38:34;;;;;;;17.50;8.63;;;;;;;10.97;100.00;100348.34;4879287;29;20025;-76
2022/10/29 06:41:00;;;;;;;16.60;9.77;;;;;;;11.00;100.00;100353.34;4878778;29;20035;-76
2022/10/29 06:43:26;;;;;;;20.70;10.07;;;;;;;11.00;100.00;100352.53;4880148;29;20036;-76
2022/10/29 06:45:51;;;;;;;15.70;9.80;;;;;;;11.01;100.00;100343.53;4880043;29;20072;-78
2022/10/29 06:48:17;;;;;;;15.57;9.97;;;;;;;11.06;100.00;100343.81;4880315;29;20029;-76
2022/10/29 06:50:42;;;;;;;15.90;9.50;;;;;;;11.03;100.00;100328.19;4880094;29;20029;-76
2022/10/29 06:53:11;;;;;;;12.87;9.00;;;;;;;11.01;100.00;100319.53;4880033;29;20021;-78
2022/10/29 06:55:37;;;;;;;16.77;9.73;;;;;;;11.10;100.00;100329.97;4872272;29;20034;-75
2022/10/29 06:58:14;;;;;;;20.00;9.43;;;;;;;11.08;100.00;100321.31;4861315;29;20070;-75
2022/10/29 07:00:41;;;;;;;13.57;9.50;;;;;;;11.11;100.00;100317.47;4860501;29;20132;-76
2022/10/29 07:03:08;;;;;;;16.87;9.20;;;;;;;11.11;100.00;100317.47;4861067;29;20040;-75
2022/10/29 07:05:35;;;;;;;14.50;9.63;;;;;;;11.09;100.00;100311.50;4861330;29;20100;-75
2022/10/29 07:08:01;;;;;;;15.80;9.43;;;;;;;11.06;100.00;100307.34;4866413;29;20286;-80
2022/10/29 07:10:30;;;;;;;13.47;9.37;;;;;;;11.12;100.00;100309.28;4870343;29;20572;-75
2022/10/29 07:12:56;;;;;;;12.63;9.00;;;;;;;11.11;100.00;100304.16;4860708;29;20045;-73
2022/10/29 07:15:21;;;;;;;13.97;9.20;;;;;;;11.16;100.00;100307.94;4859698;29;20034;-73
2022/10/29 07:18:03;;;;;;;14.20;9.07;;;;;;;11.19;100.00;100298.75;4860499;29;20474;-76
2022/10/29 07:20:31;;;;;;;13.67;9.87;;;;;;;11.18;100.00;100299.75;4860304;29;20034;-74
2022/10/29 07:22:59;;;;;;;12.38;8.65;;;;;;;11.21;100.00;100299.41;4859766;29;20033;-75
2022/10/29 07:25:25;;;;;;;11.60;8.73;;;;;;;11.18;100.00;100284.59;4860182;29;20045;-74
2022/10/29 07:27:51;;;;;;;13.43;8.97;;;;;;;11.26;100.00;100288.19;4860167;29;20033;-74
2022/10/29 07:30:17;;;;;;;13.90;7.80;;;;;;;11.25;100.00;100284.69;4859771;29;20034;-73
2022/10/29 07:32:42;;;;;;;13.63;7.40;;;;;;;11.13;100.00;100262.97;4862709;29;20116;-76
2022/10/29 07:35:08;;;;;;;10.10;7.97;;;;;;;11.25;100.00;100258.03;4853553;29;20121;-74
2022/10/29 07:37:34;;;;;;;12.27;7.23;;;;;;;11.29;100.00;100259.38;4868313;29;20085;-74
2022/10/29 07:39:59;;;;;;;11.10;7.30;;;;;;;11.33;100.00;100258.00;4870244;29;20465;-75
2022/10/29 07:42:25;;;;;;;10.53;7.33;;;;;;;11.37;100.00;100259.28;4862458;29;20147;-73
2022/10/29 07:44:50;;;;;;;10.37;6.37;;;;;;;11.39;100.00;100251.13;4870247;29;20496;-72
2022/10/29 07:47:16;;;;;;;6.83;5.60;;;;;;;11.38;100.00;100252.94;4870970;29;20121;-72
2022/10/29 07:49:41;;;;;;;9.33;6.73;;;;;;;11.22;100.00;100231.75;4860433;29;20029;-74
2022/10/29 07:52:08;;;;;;;10.50;6.40;;;;;;;11.24;100.00;100235.06;4880110;29;20041;-78
2022/10/29 07:54:34;;;;;;;9.77;7.73;;;;;;;11.31;100.00;100244.03;4881660;29;20029;-77
2022/10/29 07:56:59;;;;;;;11.00;6.53;;;;;;;11.26;100.00;100237.56;4866431;29;20058;-79
2022/10/29 07:59:50;;;;;;;;;;;;;;;;;;;;;
2022/10/29 08:02:56;;;;;;;10.47;6.47;;;;;;;11.35;100.00;100231.16;4876059;29;20037;-80
2022/10/29 08:09:39;;;;;;;9.43;7.37;;;;;;;11.34;100.00;100229.50;4873096;29;20093;-78
2022/10/29 08:12:16;;;;;;;8.10;7.30;;;;;;;11.34;100.00;100230.34;4846217;29;20113;-76
2022/10/29 08:14:45;;;;;;;7.63;6.40;;;;;;;11.34;100.00;100214.34;4853954;29;20034;-72
2022/10/29 08:17:10;;;;;;;9.23;7.33;;;;;;;11.39;100.00;100219.13;4851747;29;20049;-78
2022/10/29 08:20:08;;;;;;;11.63;6.73;;;;;;;11.41;100.00;100215.25;4852154;29;20044;-78
2022/10/29 08:22:35;;;;;;;10.70;7.00;;;;;;;11.31;100.00;100185.38;4846297;29;20073;-76
2022/10/29 08:28:50;;;;;;;12.33;6.53;;;;;;;11.34;100.00;100177.00;4836837;29;20048;-75
2022/10/29 08:31:19;;;;;;;10.57;6.80;;;;;;;11.40;100.00;100183.44;4847568;29;20054;-78
2022/10/29 08:33:47;;;;;;;7.68;6.68;;;;;;;11.25;100.00;100164.75;4852820;29;20029;-81
2022/10/29 08:36:15;;;;;;;11.17;6.60;;;;;;;11.14;100.00;100149.22;4858490;29;20094;-77
2022/10/29 08:38:51;;;;;;;7.97;7.00;;;;;;;11.33;100.00;100167.34;4835843;29;20033;-76
2022/10/29 08:41:54;;;;;;;8.37;6.80;;;;;;;11.45;100.00;100176.56;4858839;29;20435;-77
2022/10/29 08:44:55;;;;;;;9.53;6.20;;;;;;;11.24;100.00;100136.44;4839953;29;20033;-74
2022/10/29 08:47:22;;;;;;;7.47;6.27;;;;;;;11.46;100.00;100175.53;4859487;29;20055;-74
2022/10/29 08:50:40;;;;;;;13.03;9.23;;;;;;;11.20;100.00;100127.16;4839099;29;20093;-77
2022/10/29 08:57:41;;;;;;;10.77;8.07;;;;;;;11.47;100.00;100147.88;4860576;29;20037;-77
2022/10/29 09:04:40;;;;;;;9.93;7.53;;;;;;;11.34;100.00;100096.22;4794564;30;20043;-78
2022/10/29 09:07:52;;;;;;;10.87;7.53;;;;;;;11.59;100.00;100131.44;4793360;30;20036;-77
2022/10/29 09:10:40;;;;;;;12.70;7.70;;;;;;;11.57;100.00;100126.28;4791679;29;20088;-78
2022/10/29 09:13:46;;;;;;;14.63;9.45;;;;;;;11.58;100.00;100119.09;4788389;30;20108;-78
2022/10/29 09:16:30;;;;;;;13.53;8.97;;;;;;;11.56;100.00;100110.44;4843192;29;20042;-76
2022/10/29 09:19:23;;;;;;;11.67;8.60;;;;;;;11.57;100.00;100110.28;4844614;29;20034;-77
2022/10/29 09:22:27;;;;;;;10.77;8.30;;;;;;;11.58;100.00;100103.09;4827669;29;20490;-78
2022/10/29 09:25:14;;;;;;;12.27;9.00;;;;;;;11.57;100.00;100096.13;4824579;29;20371;-74
2022/10/29 09:28:08;;;;;;;12.87;7.87;;;;;;;11.60;100.00;100090.41;4851072;29;20533;-77
2022/10/29 09:31:03;;;;;;;10.97;7.67;;;;;;;11.51;100.00;100078.16;4855434;29;20497;-78
2022/10/29 09:33:31;;;;;;;13.27;7.40;;;;;;;11.57;100.00;100086.28;4827561;29;20368;-78
2022/10/29 09:35:58;;;;;;;10.60;8.20;;;;;;;11.51;100.00;100070.16;4825423;29;20042;-77
2022/10/29 09:42:34;;;;;;;9.00;7.05;;;;;;;11.49;100.00;100052.50;4838232;29;20050;-76
2022/10/29 09:45:08;;;;;;;9.35;8.07;;;;;;;11.40;100.00;100026.16;4816327;29;20045;-78
2022/10/29 09:47:47;;;;;;;13.50;7.57;;;;;;;11.53;100.00;100046.81;4809863;29;20057;-78
2022/10/29 09:50:13;;;;;;;12.47;7.90;;;;;;;11.58;100.00;100047.09;4845840;29;20190;-79
2022/10/29 09:52:41;;;;;;;12.30;7.63;;;;;;;11.60;100.00;100043.22;4847748;29;20518;-78
2022/10/29 09:55:18;;;;;;;11.73;8.88;;;;;;;11.60;100.00;100039.75;4853182;29;20033;-78
2022/10/29 09:57:45;;;;;;;11.20;8.73;;;;;;;11.59;100.00;100028.25;4843775;29;20533;-78
2022/10/29 10:00:31;;;;;;;10.83;8.03;;;;;;;11.66;100.00;100025.66;4836010;29;20452;-76
2022/10/29 10:03:05;;;;;;;10.13;7.47;;;;;;;11.60;100.00;100015.75;4841697;29;20079;-79
2022/10/29 10:05:33;;;;;;;10.07;7.07;;;;;;;11.54;100.00;100017.28;4841143;29;20042;-78
2022/10/29 10:11:58;;;;;;;8.83;7.93;;;;;;;11.40;100.00;99970.16;4827673;29;20129;-76
2022/10/29 10:14:46;;;;;;;7.90;7.07;;;;;;;11.38;100.00;99981.00;4827752;29;20053;-78
2022/10/29 10:17:12;;;;;;;13.63;8.47;;;;;;;11.55;100.00;100007.44;4823376;29;20030;-77
2022/10/29 10:19:44;;;;;;;8.83;7.93;;;;;;;11.59;100.00;100003.41;4809637;29;20054;-77
2022/10/29 10:22:25;;;;;;;10.30;7.93;;;;;;;11.56;100.00;99983.25;4832809;29;20432;-76
2022/10/29 10:24:51;;;;;;;9.03;8.07;;;;;;;11.61;100.00;99990.72;4832737;29;20417;-75
2022/10/29 10:27:41;;;;;;;7.43;6.00;;;;;;;11.66;100.00;99988.31;4841919;29;20111;-76
2022/10/29 10:30:14;;;;;;;7.60;6.43;;;;;;;11.73;100.00;99994.53;4826585;29;20476;-75
2022/10/29 10:32:40;;;;;;;9.30;5.83;;;;;;;11.79;100.00;99977.81;4841357;29;20037;-78
2022/10/29 10:35:25;;;;;;;4.93;4.43;;;;;;;11.90;100.00;99971.97;4841494;29;20042;-78
2022/10/29 10:37:51;;;;;;;5.50;4.53;;;;;;;11.94;100.00;99956.41;4830803;29;20045;-77
2022/10/29 10:40:27;;;;;;;8.50;5.20;;;;;;;12.03;100.00;99947.25;4836021;29;20119;-78
2022/10/29 10:42:54;;;;;;;6.07;5.33;;;;;;;12.13;100.00;99946.91;4828874;29;20053;-77
2022/10/29 10:45:26;;;;;;;6.20;5.60;;;;;;;12.22;100.00;99935.94;4823571;29;20039;-76
2022/10/29 10:47:56;;;;;;;6.83;4.27;;;;;;;12.26;100.00;99933.69;4824540;29;20374;-76
2022/10/29 10:50:34;;;;;;;4.87;4.37;;;;;;;12.26;100.00;99934.53;4824765;29;20084;-77
2022/10/29 10:53:22;;;;;;;7.07;5.53;;;;;;;12.29;100.00;99930.63;4838529;29;20061;-76
2022/10/29 10:55:56;;;;;;;6.93;5.07;;;;;;;12.28;100.00;99928.97;4836904;29;20034;-74
2022/10/29 10:58:43;;;;;;;6.73;4.93;;;;;;;12.26;100.00;99917.69;4841685;29;20128;-74
2022/10/29 11:01:17;;;;;;;5.83;5.23;;;;;;;12.24;100.00;99911.72;4842119;29;20041;-79
2022/10/29 11:03:48;;;;;;;8.00;5.33;;;;;;;12.25;100.00;99906.16;4832205;29;20113;-77
2022/10/29 11:06:37;;;;;;;7.60;5.93;;;;;;;12.30;100.00;99900.25;4842974;29;20042;-76
2022/10/29 11:09:15;;;;;;;7.32;5.05;;;;;;;12.29;100.00;99899.41;4823656;29;20432;-77
2022/10/29 11:11:43;;;;;;;6.95;5.30;;;;;;;12.29;100.00;99887.91;4842242;29;20421;-79
2022/10/29 11:14:26;;;;;;;6.20;5.37;;;;;;;12.29;100.00;99875.38;4842615;29;20094;-75
2022/10/29 11:16:56;;;;;;;5.77;5.03;;;;;;;12.20;100.00;99871.22;4842928;29;20113;-78
2022/10/29 11:19:28;;;;;;;6.03;5.23;;;;;;;12.13;100.00;99866.84;4843753;29;20041;-79
2022/10/29 11:22:13;;;;;;;7.87;6.63;;;;;;;12.12;100.00;99863.34;4843015;29;20059;-77
2022/10/29 11:25:06;;;;;;;7.30;6.50;;;;;;;12.10;100.00;99854.72;4843143;29;20128;-78
2022/10/29 11:27:54;;;;;;;6.37;5.67;;;;;;;12.03;100.00;99849.34;4842981;29;20049;-78
2022/10/29 11:30:21;;;;;;;9.03;6.70;;;;;;;11.93;100.00;99835.50;4842916;29;20038;-78
2022/10/29 11:33:08;;;;;;;7.03;5.70;;;;;;;12.08;100.00;99836.22;4841333;29;20050;-80
2022/10/29 11:35:59;;;;;;;7.17;5.50;;;;;;;12.13;100.00;99834.81;4842578;29;20125;-77
2022/10/29 11:38:38;;;;;;;7.17;5.60;;;;;;;12.14;100.00;99831.13;4842258;29;20124;-79
2022/10/29 11:41:09;;;;;;;6.47;5.27;;;;;;;12.12;100.00;99822.50;4841515;29;20471;-77
2022/10/29 11:43:34;;;;;;;8.60;6.00;;;;;;;12.13;100.00;99813.47;4842351;29;20036;-78
2022/10/29 11:46:17;;;;;;;5.87;5.20;;;;;;;12.07;100.00;99805.22;4841066;29;20033;-79
2022/10/29 11:49:15;;;;;;;5.30;4.80;;;;;;;11.84;100.00;99772.63;4846518;29;20102;-77
2022/10/29 11:52:01;;;;;;;;;;;;;;;12.12;100.00;99795.81;4840764;29;20038;-81
2022/10/29 11:54:52;;;;;;;7.37;4.90;;;;;;;12.12;100.00;99790.47;4842174;29;19913;-80
2022/10/29 11:57:37;;;;;;;5.13;4.57;;;;;;;12.10;100.00;99783.47;4841678;29;20102;-79
2022/10/29 12:00:19;;;;;;;5.83;4.80;;;;;;;12.12;100.00;99771.78;4840213;29;20386;-76
2022/10/29 12:03:14;;;;;;;8.83;4.30;;;;;;;12.12;100.00;99769.13;4842014;29;20543;-76
2022/10/29 12:06:05;;;;;;;8.93;5.30;;;;;;;12.10;100.00;99762.13;4843726;29;20034;-78
2022/10/29 12:08:33;;;;;;;8.73;6.20;;;;;;;12.09;100.00;99757.81;4845820;29;20133;-78
2022/10/29 12:11:00;;;;;;;;;;;;;;;12.14;100.00;99749.22;4846282;29;20128;-75
2022/10/29 12:13:32;;;;;;;8.40;4.73;;;;;;;12.07;100.00;99749.19;4845319;29;19916;-78